NOZ1191 EFHK-ENGM
Flight info
| Callsign | NOZ1191 |
|---|---|
| Flight time | N/A |
| Altitude | 32000 |
| Route | ADIVO Y365 POGOK DCT POKAS DCT EBURI N623 ESEBA |
| Aircraft | B738/M-SDE2E3FGHIRWXY/LB1 |
Departure
| Time | 2026-04-23 18:55 |
|---|---|
| Airport | Helsinki Vantaa Airport (EFHK) |
Arrival
| Time | N/A |
|---|---|
| Airport | Oslo-Gardermoen International Airport (ENGM) |
| Time | Latitude | Longitude | Altitude | Speed | Heading |
|---|---|---|---|---|---|
| 2026-04-23 18:16 | 60.31593 | 24.97292 | 160 ft | 0 kts | 243° |
| 2026-04-23 18:41 | 60.31600 | 24.97321 | 160 ft | 4 kts | 252° |
| 2026-04-23 18:42 | 60.31604 | 24.97373 | 160 ft | 4 kts | 276° |
| 2026-04-23 18:42 | 60.31596 | 24.97421 | 160 ft | 4 kts | 312° |
| 2026-04-23 18:42 | 60.31586 | 24.97439 | 160 ft | 1 kts | 333° |
| 2026-04-23 18:46 | 60.31586 | 24.97438 | 160 ft | 1 kts | 333° |
| 2026-04-23 18:46 | 60.31612 | 24.97440 | 160 ft | 7 kts | 26° |
| 2026-04-23 18:46 | 60.31644 | 24.97493 | 160 ft | 10 kts | 25° |
| 2026-04-23 18:46 | 60.31715 | 24.97457 | 160 ft | 12 kts | 334° |
| 2026-04-23 18:47 | 60.31792 | 24.97376 | 160 ft | 13 kts | 332° |
| 2026-04-23 18:47 | 60.31879 | 24.97284 | 161 ft | 15 kts | 332° |
| 2026-04-23 18:47 | 60.31976 | 24.97184 | 161 ft | 16 kts | 333° |
| 2026-04-23 18:47 | 60.32082 | 24.97077 | 162 ft | 18 kts | 333° |
| 2026-04-23 18:48 | 60.32193 | 24.96963 | 162 ft | 18 kts | 333° |
| 2026-04-23 18:48 | 60.32288 | 24.96857 | 163 ft | 12 kts | 314° |
| 2026-04-23 18:48 | 60.32263 | 24.96705 | 163 ft | 14 kts | 227° |
| 2026-04-23 18:48 | 60.32192 | 24.96553 | 163 ft | 16 kts | 227° |
| 2026-04-23 18:49 | 60.32113 | 24.96378 | 163 ft | 18 kts | 227° |
| 2026-04-23 18:49 | 60.32024 | 24.96183 | 163 ft | 20 kts | 227° |
| 2026-04-23 18:49 | 60.31933 | 24.95980 | 163 ft | 18 kts | 228° |
| 2026-04-23 18:49 | 60.31842 | 24.95779 | 163 ft | 20 kts | 227° |
| 2026-04-23 18:50 | 60.31777 | 24.95636 | 162 ft | 22 kts | 227° |
| 2026-04-23 18:50 | 60.31635 | 24.95326 | 162 ft | 24 kts | 227° |
| 2026-04-23 18:50 | 60.31544 | 24.95122 | 162 ft | 20 kts | 229° |
| 2026-04-23 18:50 | 60.31450 | 24.94905 | 162 ft | 21 kts | 228° |
| 2026-04-23 18:51 | 60.31345 | 24.94673 | 161 ft | 23 kts | 227° |
| 2026-04-23 18:51 | 60.31235 | 24.94430 | 161 ft | 21 kts | 227° |
| 2026-04-23 18:51 | 60.31139 | 24.94219 | 161 ft | 17 kts | 227° |
| 2026-04-23 18:51 | 60.31065 | 24.94056 | 161 ft | 16 kts | 230° |
| 2026-04-23 18:52 | 60.31039 | 24.93886 | 161 ft | 12 kts | 283° |
| 2026-04-23 18:52 | 60.31089 | 24.93753 | 160 ft | 12 kts | 326° |
| 2026-04-23 18:52 | 60.31169 | 24.93738 | 159 ft | 11 kts | 27° |
| 2026-04-23 18:52 | 60.31183 | 24.93761 | 160 ft | 0 kts | 44° |
| 2026-04-23 18:54 | 60.31207 | 24.93812 | 160 ft | 13 kts | 47° |
| 2026-04-23 18:55 | 60.31350 | 24.94126 | 161 ft | 65 kts | 47° |
| 2026-04-23 18:55 | 60.31859 | 24.95252 | 162 ft | 149 kts | 47° |
| 2026-04-23 18:55 | 60.32716 | 24.97122 | 331 ft | 205 kts | 47° |
| 2026-04-23 18:55 | 60.33687 | 24.99412 | 1180 ft | 223 kts | 49° |
| 2026-04-23 18:56 | 60.34355 | 25.01055 | 1753 ft | 235 kts | 48° |
| 2026-04-23 18:56 | 60.35819 | 25.04499 | 2804 ft | 231 kts | 46° |
| 2026-04-23 18:56 | 60.36846 | 25.06885 | 3101 ft | 225 kts | 46° |
| 2026-04-23 18:56 | 60.37925 | 25.09263 | 3615 ft | 230 kts | 42° |
| 2026-04-23 18:57 | 60.39068 | 25.11544 | 3971 ft | 230 kts | 34° |
| 2026-04-23 18:57 | 60.40508 | 25.12743 | 4008 ft | 225 kts | 10° |
| 2026-04-23 18:57 | 60.42054 | 25.13022 | 4007 ft | 225 kts | 359° |
| 2026-04-23 18:57 | 60.43619 | 25.13036 | 3987 ft | 225 kts | 359° |
| 2026-04-23 18:58 | 60.45207 | 25.13045 | 4002 ft | 234 kts | 359° |
| 2026-04-23 18:58 | 60.46885 | 25.13070 | 4538 ft | 246 kts | 358° |
| 2026-04-23 18:58 | 60.48541 | 25.12307 | 5437 ft | 247 kts | 333° |
| 2026-04-23 18:58 | 60.49870 | 25.10049 | 6273 ft | 255 kts | 307° |
| 2026-04-23 18:59 | 60.50585 | 25.06735 | 7108 ft | 262 kts | 284° |
| 2026-04-23 18:59 | 60.50724 | 25.03010 | 7985 ft | 267 kts | 275° |
| 2026-04-23 18:59 | 60.50715 | 24.99197 | 8796 ft | 273 kts | 275° |
| 2026-04-23 18:59 | 60.50699 | 24.95327 | 9639 ft | 275 kts | 276° |
| 2026-04-23 19:00 | 60.50696 | 24.91456 | 10294 ft | 284 kts | 277° |
| 2026-04-23 19:00 | 60.50639 | 24.87255 | 10471 ft | 315 kts | 267° |
| 2026-04-23 19:00 | 60.49883 | 24.82836 | 10679 ft | 347 kts | 252° |
| 2026-04-23 19:00 | 60.48836 | 24.78289 | 11096 ft | 361 kts | 250° |
| 2026-04-23 19:01 | 60.47727 | 24.73648 | 11759 ft | 367 kts | 250° |
| 2026-04-23 19:01 | 60.46605 | 24.68973 | 12505 ft | 370 kts | 251° |
| 2026-04-23 19:01 | 60.45475 | 24.64234 | 13218 ft | 375 kts | 251° |
| 2026-04-23 19:01 | 60.44340 | 24.59440 | 13884 ft | 380 kts | 252° |
| 2026-04-23 19:02 | 60.43586 | 24.56238 | 14299 ft | 382 kts | 252° |
| 2026-04-23 19:02 | 60.42141 | 24.50095 | 15119 ft | 386 kts | 252° |
| 2026-04-23 19:02 | 60.40979 | 24.45155 | 15763 ft | 390 kts | 253° |
| 2026-04-23 19:02 | 60.39824 | 24.40246 | 16378 ft | 393 kts | 253° |
| 2026-04-23 19:03 | 60.38643 | 24.35231 | 16991 ft | 397 kts | 253° |
| 2026-04-23 19:03 | 60.37496 | 24.30377 | 17598 ft | 401 kts | 253° |
| 2026-04-23 19:03 | 60.36289 | 24.25282 | 18196 ft | 405 kts | 253° |
| 2026-04-23 19:03 | 60.35139 | 24.20440 | 18689 ft | 408 kts | 253° |
| 2026-04-23 19:04 | 60.33915 | 24.15298 | 19183 ft | 412 kts | 254° |
| 2026-04-23 19:04 | 60.32726 | 24.10305 | 19651 ft | 416 kts | 254° |
| 2026-04-23 19:04 | 60.31464 | 24.05024 | 20137 ft | 420 kts | 254° |
| 2026-04-23 19:04 | 60.30246 | 23.99940 | 20609 ft | 424 kts | 255° |
| 2026-04-23 19:05 | 60.29230 | 23.94449 | 21063 ft | 414 kts | 266° |
| 2026-04-23 19:05 | 60.28592 | 23.88829 | 21563 ft | 413 kts | 269° |
| 2026-04-23 19:05 | 60.28054 | 23.83490 | 22008 ft | 415 kts | 269° |
| 2026-04-23 19:05 | 60.27477 | 23.77646 | 22456 ft | 420 kts | 269° |
| 2026-04-23 19:06 | 60.26891 | 23.71867 | 22916 ft | 423 kts | 269° |
| 2026-04-23 19:06 | 60.26280 | 23.66042 | 23385 ft | 427 kts | 269° |
| 2026-04-23 19:06 | 60.25646 | 23.60164 | 23763 ft | 431 kts | 269° |
| 2026-04-23 19:06 | 60.24995 | 23.54272 | 24156 ft | 433 kts | 268° |
| 2026-04-23 19:07 | 60.24334 | 23.48355 | 24552 ft | 435 kts | 268° |
| 2026-04-23 19:07 | 60.23659 | 23.42364 | 24941 ft | 437 kts | 268° |
| 2026-04-23 19:07 | 60.22993 | 23.36476 | 25293 ft | 440 kts | 268° |
| 2026-04-23 19:07 | 60.22309 | 23.30455 | 25656 ft | 442 kts | 268° |
| 2026-04-23 19:08 | 60.21620 | 23.24406 | 26018 ft | 445 kts | 268° |
| 2026-04-23 19:08 | 60.20926 | 23.18335 | 26375 ft | 447 kts | 268° |
| 2026-04-23 19:08 | 60.20225 | 23.12232 | 26728 ft | 449 kts | 268° |
| 2026-04-23 19:08 | 60.19518 | 23.06095 | 27043 ft | 451 kts | 268° |
| 2026-04-23 19:09 | 60.18804 | 22.99938 | 27369 ft | 454 kts | 268° |
| 2026-04-23 19:09 | 60.18082 | 22.93731 | 27684 ft | 456 kts | 268° |
| 2026-04-23 19:09 | 60.17357 | 22.87522 | 27994 ft | 458 kts | 268° |
| 2026-04-23 19:09 | 60.16623 | 22.81279 | 28376 ft | 458 kts | 268° |
| 2026-04-23 19:10 | 60.15888 | 22.75072 | 28889 ft | 456 kts | 268° |
| 2026-04-23 19:10 | 60.15156 | 22.68899 | 29409 ft | 454 kts | 268° |
| 2026-04-23 19:10 | 60.14425 | 22.62743 | 29816 ft | 453 kts | 268° |
| 2026-04-23 19:10 | 60.13693 | 22.56595 | 30157 ft | 453 kts | 268° |
| 2026-04-23 19:11 | 60.12968 | 22.50525 | 30514 ft | 452 kts | 268° |
| 2026-04-23 19:11 | 60.12230 | 22.44380 | 30876 ft | 451 kts | 268° |
| 2026-04-23 19:11 | 60.11494 | 22.38269 | 31228 ft | 450 kts | 268° |
| 2026-04-23 19:11 | 60.10757 | 22.32167 | 31573 ft | 450 kts | 268° |
| 2026-04-23 19:12 | 60.10270 | 22.28143 | 31807 ft | 449 kts | 268° |
| 2026-04-23 19:12 | 60.08527 | 22.13798 | 31920 ft | 454 kts | 267° |
| 2026-04-23 19:13 | 60.07028 | 22.01653 | 31910 ft | 448 kts | 267° |
| 2026-04-23 19:13 | 60.05526 | 21.89562 | 31920 ft | 447 kts | 267° |
| 2026-04-23 19:14 | 60.04027 | 21.77553 | 31931 ft | 448 kts | 267° |
| 2026-04-23 19:14 | 60.02505 | 21.65468 | 31930 ft | 449 kts | 266° |
| 2026-04-23 19:15 | 60.00966 | 21.53352 | 31933 ft | 449 kts | 266° |
| 2026-04-23 19:15 | 59.99437 | 21.41234 | 31930 ft | 446 kts | 269° |
| 2026-04-23 19:15 | 59.99021 | 21.35184 | 31921 ft | 433 kts | 279° |
| 2026-04-23 19:16 | 59.99002 | 21.29232 | 31943 ft | 428 kts | 281° |
| 2026-04-23 19:16 | 59.99073 | 21.17415 | 31936 ft | 428 kts | 281° |
| 2026-04-23 19:17 | 59.99131 | 20.99557 | 31937 ft | 428 kts | 280° |
| 2026-04-23 19:17 | 59.99127 | 20.87636 | 31940 ft | 428 kts | 280° |
| 2026-04-23 19:18 | 59.99105 | 20.75731 | 31940 ft | 428 kts | 280° |
| 2026-04-23 19:18 | 59.99072 | 20.63914 | 31941 ft | 428 kts | 279° |
| 2026-04-23 19:19 | 59.99004 | 20.46071 | 31938 ft | 428 kts | 279° |
| 2026-04-23 19:20 | 59.98913 | 20.28231 | 31943 ft | 428 kts | 279° |
| 2026-04-23 19:20 | 59.98838 | 20.16348 | 31937 ft | 428 kts | 279° |
| 2026-04-23 19:21 | 59.98707 | 19.98544 | 31935 ft | 427 kts | 279° |
| 2026-04-23 19:22 | 59.98606 | 19.86686 | 31936 ft | 427 kts | 279° |
| 2026-04-23 19:22 | 59.98436 | 19.68959 | 31943 ft | 427 kts | 278° |
| 2026-04-23 19:23 | 59.98309 | 19.57068 | 31949 ft | 427 kts | 278° |
| 2026-04-23 19:24 | 59.98101 | 19.39269 | 31954 ft | 428 kts | 278° |
| 2026-04-23 19:24 | 59.97748 | 19.21467 | 31963 ft | 429 kts | 276° |
| 2026-04-23 19:25 | 59.97190 | 18.97627 | 31973 ft | 429 kts | 276° |
| 2026-04-23 19:26 | 59.96758 | 18.79748 | 31974 ft | 429 kts | 276° |
| 2026-04-23 19:27 | 59.95990 | 18.50007 | 31967 ft | 430 kts | 275° |
| 2026-04-23 19:28 | 59.95326 | 18.26190 | 31966 ft | 429 kts | 275° |
| 2026-04-23 19:29 | 59.94803 | 18.08423 | 31964 ft | 429 kts | 275° |
| 2026-04-23 19:30 | 59.94258 | 17.90753 | 31964 ft | 429 kts | 274° |
| 2026-04-23 19:31 | 59.93684 | 17.72901 | 31963 ft | 429 kts | 274° |
| 2026-04-23 19:31 | 59.93291 | 17.61098 | 31965 ft | 428 kts | 274° |
| 2026-04-23 19:32 | 59.92885 | 17.49220 | 31961 ft | 428 kts | 274° |
| 2026-04-23 19:32 | 59.92472 | 17.37460 | 31965 ft | 428 kts | 274° |
| 2026-04-23 19:33 | 59.92047 | 17.25624 | 31966 ft | 428 kts | 273° |
| 2026-04-23 19:33 | 59.91386 | 17.07837 | 31970 ft | 428 kts | 273° |
| 2026-04-23 19:34 | 59.90933 | 16.95997 | 31971 ft | 428 kts | 273° |
| 2026-04-23 19:35 | 59.90264 | 16.79012 | 31982 ft | 429 kts | 272° |
| 2026-04-23 19:35 | 59.89787 | 16.67237 | 31987 ft | 429 kts | 272° |
| 2026-04-23 19:36 | 59.89378 | 16.57316 | 31994 ft | 429 kts | 272° |
| 2026-04-23 19:36 | 59.88878 | 16.45454 | 31997 ft | 430 kts | 272° |
| 2026-04-23 19:37 | 59.88367 | 16.33596 | 32002 ft | 430 kts | 272° |
| 2026-04-23 19:37 | 59.87848 | 16.21794 | 32008 ft | 430 kts | 272° |
| 2026-04-23 19:38 | 59.87315 | 16.09910 | 32006 ft | 431 kts | 272° |
| 2026-04-23 19:38 | 59.86770 | 15.98016 | 32025 ft | 431 kts | 271° |
| 2026-04-23 19:39 | 59.86215 | 15.86132 | 32022 ft | 431 kts | 271° |
| 2026-04-23 19:39 | 59.85669 | 15.74655 | 32029 ft | 431 kts | 271° |
| 2026-04-23 19:40 | 59.85092 | 15.62770 | 32041 ft | 432 kts | 271° |
| 2026-04-23 19:40 | 59.84504 | 15.50882 | 32050 ft | 432 kts | 271° |
| 2026-04-23 19:41 | 59.83906 | 15.38983 | 32058 ft | 432 kts | 271° |
| 2026-04-23 19:41 | 59.83312 | 15.27393 | 32058 ft | 432 kts | 270° |
| 2026-04-23 19:42 | 59.82686 | 15.15402 | 32070 ft | 432 kts | 270° |
| 2026-04-23 19:42 | 59.82057 | 15.03548 | 32073 ft | 432 kts | 270° |
| 2026-04-23 19:43 | 59.81420 | 14.91743 | 32084 ft | 432 kts | 270° |
| 2026-04-23 19:43 | 59.80770 | 14.79861 | 32083 ft | 432 kts | 270° |
| 2026-04-23 19:44 | 59.80196 | 14.68004 | 32086 ft | 427 kts | 275° |
| 2026-04-23 19:44 | 59.80891 | 14.56475 | 32100 ft | 417 kts | 287° |
| 2026-04-23 19:45 | 59.82072 | 14.45326 | 32075 ft | 406 kts | 287° |
| 2026-04-23 19:45 | 59.82632 | 14.39930 | 32082 ft | 391 kts | 287° |
| 2026-04-23 19:45 | 59.83164 | 14.34733 | 32070 ft | 377 kts | 287° |
| 2026-04-23 19:45 | 59.83671 | 14.29719 | 32080 ft | 363 kts | 287° |
| 2026-04-23 19:46 | 59.84158 | 14.24869 | 32076 ft | 350 kts | 287° |
| 2026-04-23 19:46 | 59.84623 | 14.20208 | 32083 ft | 338 kts | 287° |
| 2026-04-23 19:46 | 59.85079 | 14.15639 | 31629 ft | 338 kts | 287° |
| 2026-04-23 19:46 | 59.85557 | 14.10919 | 30409 ft | 360 kts | 287° |
| 2026-04-23 19:47 | 59.86056 | 14.06004 | 28934 ft | 385 kts | 286° |
| 2026-04-23 19:47 | 59.86588 | 14.00662 | 27942 ft | 395 kts | 285° |
| 2026-04-23 19:47 | 59.87110 | 13.95296 | 27392 ft | 394 kts | 285° |
| 2026-04-23 19:47 | 59.87615 | 13.90046 | 26987 ft | 388 kts | 285° |
| 2026-04-23 19:48 | 59.88117 | 13.84791 | 26506 ft | 385 kts | 285° |
| 2026-04-23 19:48 | 59.88618 | 13.79566 | 26007 ft | 383 kts | 285° |
| 2026-04-23 19:48 | 59.89116 | 13.74357 | 25496 ft | 382 kts | 285° |
| 2026-04-23 19:48 | 59.89611 | 13.69170 | 25015 ft | 380 kts | 285° |
| 2026-04-23 19:49 | 59.90103 | 13.63992 | 24464 ft | 381 kts | 284° |
| 2026-04-23 19:49 | 59.90593 | 13.58824 | 24001 ft | 380 kts | 284° |
| 2026-04-23 19:49 | 59.91080 | 13.53651 | 23521 ft | 378 kts | 284° |
| 2026-04-23 19:49 | 59.91562 | 13.48511 | 23016 ft | 376 kts | 284° |
| 2026-04-23 19:50 | 59.92038 | 13.43417 | 22552 ft | 372 kts | 284° |
| 2026-04-23 19:50 | 59.92509 | 13.38343 | 22100 ft | 369 kts | 284° |
| 2026-04-23 19:50 | 59.92968 | 13.33384 | 21673 ft | 366 kts | 284° |
| 2026-04-23 19:50 | 59.93426 | 13.28417 | 21239 ft | 363 kts | 284° |
| 2026-04-23 19:51 | 59.93880 | 13.23472 | 20819 ft | 361 kts | 284° |
| 2026-04-23 19:51 | 59.94329 | 13.18563 | 20398 ft | 358 kts | 284° |
| 2026-04-23 19:51 | 59.94774 | 13.13677 | 19988 ft | 356 kts | 284° |
| 2026-04-23 19:51 | 59.95213 | 13.08831 | 19561 ft | 354 kts | 283° |
| 2026-04-23 19:52 | 59.95649 | 13.03997 | 19141 ft | 353 kts | 283° |
| 2026-04-23 19:52 | 59.96083 | 12.99179 | 18734 ft | 351 kts | 283° |
| 2026-04-23 19:52 | 59.96512 | 12.94383 | 18281 ft | 351 kts | 283° |
| 2026-04-23 19:52 | 59.96939 | 12.89595 | 17826 ft | 349 kts | 283° |
| 2026-04-23 19:53 | 59.97355 | 12.84909 | 17400 ft | 347 kts | 283° |
| 2026-04-23 19:53 | 59.97774 | 12.80175 | 16978 ft | 345 kts | 283° |
| 2026-04-23 19:53 | 59.98188 | 12.75467 | 16558 ft | 343 kts | 284° |
| 2026-04-23 19:53 | 59.98597 | 12.70783 | 16149 ft | 341 kts | 284° |
| 2026-04-23 19:54 | 59.99001 | 12.66119 | 15696 ft | 340 kts | 284° |
| 2026-04-23 19:54 | 59.99402 | 12.61463 | 15295 ft | 339 kts | 284° |
| 2026-04-23 19:54 | 59.99800 | 12.56826 | 14893 ft | 337 kts | 284° |
| 2026-04-23 19:54 | 60.00188 | 12.52298 | 14709 ft | 329 kts | 284° |
| 2026-04-23 19:55 | 60.00567 | 12.47835 | 14531 ft | 321 kts | 284° |
| 2026-04-23 19:55 | 60.00933 | 12.43497 | 14395 ft | 312 kts | 284° |
| 2026-04-23 19:55 | 60.01196 | 12.39231 | 14232 ft | 309 kts | 273° |
| 2026-04-23 19:55 | 60.00810 | 12.34943 | 13935 ft | 313 kts | 259° |
| 2026-04-23 19:56 | 60.00242 | 12.30901 | 13613 ft | 312 kts | 259° |
| 2026-04-23 19:56 | 59.99670 | 12.26811 | 13281 ft | 310 kts | 259° |
| 2026-04-23 19:56 | 59.99104 | 12.22680 | 12944 ft | 308 kts | 260° |
| 2026-04-23 19:56 | 59.98552 | 12.18594 | 12638 ft | 306 kts | 260° |
| 2026-04-23 19:57 | 59.97999 | 12.14497 | 12322 ft | 304 kts | 260° |
| 2026-04-23 19:57 | 59.97445 | 12.10437 | 12014 ft | 302 kts | 260° |
| 2026-04-23 19:57 | 59.96893 | 12.06413 | 11701 ft | 300 kts | 260° |
| 2026-04-23 19:57 | 59.96344 | 12.02406 | 11385 ft | 298 kts | 260° |
| 2026-04-23 19:58 | 59.95797 | 11.98425 | 11078 ft | 296 kts | 261° |
| 2026-04-23 19:58 | 59.95252 | 11.94465 | 10774 ft | 295 kts | 261° |
| 2026-04-23 19:58 | 59.94712 | 11.90547 | 10599 ft | 288 kts | 261° |
| 2026-04-23 19:58 | 59.94186 | 11.86752 | 10464 ft | 280 kts | 261° |
| 2026-04-23 19:59 | 59.93672 | 11.83061 | 10344 ft | 272 kts | 261° |
| 2026-04-23 19:59 | 59.93171 | 11.79471 | 10218 ft | 265 kts | 260° |
| 2026-04-23 19:59 | 59.92567 | 11.76747 | 10105 ft | 269 kts | 239° |
| 2026-04-23 19:59 | 59.91204 | 11.74372 | 10108 ft | 274 kts | 212° |
| 2026-04-23 20:00 | 59.89427 | 11.73233 | 10118 ft | 281 kts | 194° |
| 2026-04-23 20:00 | 59.87556 | 11.72572 | 10111 ft | 282 kts | 193° |
| 2026-04-23 20:00 | 59.85628 | 11.71904 | 10105 ft | 281 kts | 194° |
| 2026-04-23 20:00 | 59.83711 | 11.71219 | 10097 ft | 281 kts | 194° |
| 2026-04-23 20:01 | 59.81799 | 11.70476 | 10089 ft | 278 kts | 201° |
| 2026-04-23 20:01 | 59.80093 | 11.68851 | 10120 ft | 269 kts | 217° |
| 2026-04-23 20:01 | 59.78526 | 11.66960 | 10108 ft | 270 kts | 217° |
| 2026-04-23 20:01 | 59.76911 | 11.65055 | 10116 ft | 270 kts | 216° |
| 2026-04-23 20:02 | 59.75285 | 11.63165 | 10104 ft | 271 kts | 216° |
| 2026-04-23 20:02 | 59.73648 | 11.61276 | 10089 ft | 272 kts | 216° |
| 2026-04-23 20:02 | 59.72052 | 11.59306 | 10093 ft | 267 kts | 227° |
| 2026-04-23 20:02 | 59.70862 | 11.56662 | 10127 ft | 259 kts | 238° |
| 2026-04-23 20:03 | 59.69735 | 11.53854 | 10109 ft | 261 kts | 238° |
| 2026-04-23 20:03 | 59.68589 | 11.51056 | 10112 ft | 262 kts | 237° |
| 2026-04-23 20:03 | 59.67507 | 11.48445 | 10091 ft | 262 kts | 237° |
| 2026-04-23 20:03 | 59.66296 | 11.45543 | 10111 ft | 262 kts | 237° |
| 2026-04-23 20:04 | 59.65170 | 11.42783 | 10090 ft | 260 kts | 243° |
| 2026-04-23 20:04 | 59.64399 | 11.39652 | 10121 ft | 251 kts | 255° |
| 2026-04-23 20:04 | 59.63755 | 11.36442 | 10104 ft | 251 kts | 255° |
| 2026-04-23 20:04 | 59.63207 | 11.33190 | 10094 ft | 244 kts | 270° |
| 2026-04-23 20:05 | 59.63388 | 11.30044 | 10112 ft | 230 kts | 296° |
| 2026-04-23 20:05 | 59.67070 | 11.24633 | 9532 ft | 234 kts | 343° |
| 2026-04-23 20:06 | 59.68647 | 11.23828 | 9252 ft | 232 kts | 345° |
| 2026-04-23 20:06 | 59.70185 | 11.23069 | 9009 ft | 229 kts | 345° |
| 2026-04-23 20:06 | 59.71725 | 11.22301 | 8781 ft | 226 kts | 345° |
| 2026-04-23 20:06 | 59.73244 | 11.21533 | 8556 ft | 224 kts | 345° |
| 2026-04-23 20:07 | 59.74743 | 11.20766 | 8332 ft | 221 kts | 345° |
| 2026-04-23 20:07 | 59.76220 | 11.20004 | 8119 ft | 218 kts | 345° |
| 2026-04-23 20:07 | 59.77681 | 11.19245 | 7903 ft | 216 kts | 345° |
| 2026-04-23 20:07 | 59.79127 | 11.18491 | 7698 ft | 214 kts | 345° |
| 2026-04-23 20:08 | 59.80573 | 11.17734 | 7398 ft | 216 kts | 345° |
| 2026-04-23 20:08 | 59.82028 | 11.16971 | 7176 ft | 215 kts | 345° |
| 2026-04-23 20:08 | 59.83476 | 11.16209 | 6964 ft | 215 kts | 345° |
| 2026-04-23 20:08 | 59.84921 | 11.15448 | 6741 ft | 214 kts | 345° |
| 2026-04-23 20:09 | 59.86291 | 11.14725 | 6532 ft | 213 kts | 345° |
| 2026-04-23 20:09 | 59.87740 | 11.13960 | 6311 ft | 211 kts | 345° |
| 2026-04-23 20:09 | 59.89138 | 11.13221 | 6098 ft | 210 kts | 345° |
| 2026-04-23 20:09 | 59.90556 | 11.12471 | 6026 ft | 211 kts | 345° |
| 2026-04-23 20:10 | 59.91510 | 11.11965 | 5984 ft | 209 kts | 345° |
| 2026-04-23 20:10 | 59.93156 | 11.10179 | 5793 ft | 209 kts | 321° |
| 2026-04-23 20:10 | 59.94210 | 11.07980 | 5352 ft | 220 kts | 315° |
| 2026-04-23 20:10 | 59.95206 | 11.05721 | 5202 ft | 214 kts | 315° |
| 2026-04-23 20:11 | 59.96180 | 11.03527 | 5053 ft | 208 kts | 315° |
| 2026-04-23 20:11 | 59.97130 | 11.01405 | 4984 ft | 203 kts | 315° |
| 2026-04-23 20:11 | 59.98070 | 10.99321 | 4977 ft | 201 kts | 315° |
| 2026-04-23 20:11 | 59.99082 | 10.97430 | 4843 ft | 202 kts | 332° |
| 2026-04-23 20:12 | 60.00498 | 10.97075 | 4399 ft | 211 kts | 10° |
| 2026-04-23 20:12 | 60.01935 | 10.97824 | 4083 ft | 214 kts | 12° |
| 2026-04-23 20:12 | 60.03342 | 10.98609 | 3805 ft | 211 kts | 13° |
| 2026-04-23 20:12 | 60.04654 | 10.99364 | 3527 ft | 201 kts | 13° |
| 2026-04-23 20:13 | 60.05949 | 11.00117 | 3262 ft | 186 kts | 13° |